Westmount, Canada
Current Conditions -  °F | °C
As of 6:00 AM on Thursday 27 Nov 2014 (Local Time) from CYUL Reporting Station
Overcast Overcast  
Wind Chill: 21°   Ceiling: 3200
Heat Index: 28°   Visibility: 15mi
Dew Point: 18°   Wind: 7mph
Humidity: 64%   Direction: 10°N
Pressure: 30"   Gusts: NA
Location:  45.48°N, 73.6°W
Report Text: CYUL 271100Z 01006KT 15SM OVC032 M02/M08 A3000 RMK SC8 SLP162
Loading
Personal Weather Stations






























Interactive Weather Map New forecast layout! Learn more

10-Day Weather Forecast

Advertisements
Track Severe Weather on mobile